createdAt,value
2022-12-05T00:00:03.164Z,91.63
2022-12-05T00:01:03.169Z,91.74
2022-12-05T00:02:03.011Z,91.53
2022-12-05T00:03:03.267Z,91.63
2022-12-05T00:04:03.487Z,91.63
2022-12-05T00:05:02.807Z,91.42
2022-12-05T00:06:03.395Z,91.67
2022-12-05T00:07:02.126Z,92.09
2022-12-05T00:08:02.389Z,92.30
2022-12-05T00:09:02.332Z,92.61
2022-12-05T00:10:02.320Z,92.40
2022-12-05T00:11:02.031Z,92.19
2022-12-05T00:12:02.594Z,92.19
2022-12-05T00:13:02.303Z,92.19
2022-12-05T00:14:02.412Z,92.19
2022-12-05T00:15:02.099Z,92.09
2022-12-05T00:16:02.631Z,91.99
2022-12-05T00:17:02.680Z,92.09
2022-12-05T00:18:02.254Z,92.09
2022-12-05T00:19:02.502Z,91.99
2022-12-05T00:20:02.785Z,91.99
2022-12-05T00:21:02.625Z,92.09
2022-12-05T00:22:02.471Z,91.88
2022-12-05T00:23:02.547Z,91.67
2022-12-05T00:24:02.587Z,91.67
2022-12-05T00:25:02.536Z,91.57
2022-12-05T00:26:02.851Z,91.57
2022-12-05T00:27:03.051Z,91.57
2022-12-05T00:28:03.020Z,91.57
2022-12-05T00:29:03.232Z,91.47
2022-12-05T00:30:02.724Z,91.47
2022-12-05T00:31:03.303Z,91.67
2022-12-05T00:32:02.053Z,91.67
2022-12-05T00:33:02.255Z,91.88
2022-12-05T00:34:02.072Z,92.09
2022-12-05T00:35:02.508Z,91.99
2022-12-05T00:36:02.404Z,91.88
2022-12-05T00:37:02.599Z,91.99
2022-12-05T00:38:02.731Z,91.99
2022-12-05T00:39:02.605Z,92.09
2022-12-05T00:40:02.366Z,92.50
2022-12-05T00:41:02.398Z,92.61
2022-12-05T00:42:02.369Z,92.50
2022-12-05T00:43:02.546Z,92.71
2022-12-05T00:44:02.419Z,92.81
2022-12-05T00:45:02.303Z,92.91
2022-12-05T00:46:02.828Z,93.23
2022-12-05T00:47:02.582Z,93.48
2022-12-05T00:48:03.027Z,94.62
2022-12-05T00:49:02.667Z,94.82
2022-12-05T00:50:02.879Z,94.62
2022-12-05T00:51:02.608Z,94.62
2022-12-05T00:52:02.106Z,95.03
2022-12-05T00:53:02.084Z,95.03
2022-12-05T00:54:02.105Z,94.72
2022-12-05T00:55:02.254Z,94.62
2022-12-05T00:56:02.210Z,94.72
2022-12-05T00:57:02.631Z,94.76
2022-12-05T00:58:03.193Z,95.59
2022-12-05T00:59:02.705Z,95.80
2022-12-05T01:00:02.733Z,95.28
2022-12-05T01:01:02.877Z,95.39
2022-12-05T01:02:02.295Z,95.39
2022-12-05T01:03:02.141Z,95.44
2022-12-05T01:04:02.136Z,95.14
2022-12-05T01:05:02.205Z,94.82
2022-12-05T01:06:02.100Z,94.93
2022-12-05T01:07:01.774Z,94.82
2022-12-05T01:08:02.098Z,94.82
2022-12-05T01:09:02.349Z,94.72
2022-12-05T01:10:02.044Z,94.82
2022-12-05T01:11:02.213Z,94.26
2022-12-05T01:12:02.049Z,93.95
2022-12-05T01:13:02.395Z,93.79
2022-12-05T01:14:02.019Z,94.20
2022-12-05T01:15:01.972Z,94.06
2022-12-05T01:16:02.394Z,93.74
2022-12-05T01:17:02.158Z,93.33
2022-12-05T01:18:02.356Z,93.33
2022-12-05T01:19:02.375Z,93.12
2022-12-05T01:20:02.209Z,93.23
2022-12-05T01:21:02.076Z,93.06
2022-12-05T01:22:01.784Z,93.48
2022-12-05T01:23:01.962Z,93.27
2022-12-05T01:24:02.041Z,93.37
2022-12-05T01:25:01.459Z,93.52
2022-12-05T01:26:01.636Z,94.24
2022-12-05T01:27:02.443Z,94.04
2022-12-05T01:28:02.135Z,94.81
2022-12-05T01:29:02.577Z,94.91
2022-12-05T01:30:02.187Z,95.43
2022-12-05T01:31:02.334Z,95.22
2022-12-05T01:32:02.109Z,95.43
2022-12-05T01:33:02.466Z,95.43
2022-12-05T01:34:02.132Z,95.12
2022-12-05T01:35:01.932Z,94.87
2022-12-05T01:36:02.026Z,94.60
2022-12-05T01:37:02.581Z,94.60
2022-12-05T01:38:02.703Z,95.01
2022-12-05T01:39:02.579Z,94.91
2022-12-05T01:40:02.348Z,95.37
2022-12-05T01:41:02.277Z,95.78
2022-12-05T01:42:01.564Z,95.89
2022-12-05T01:43:01.869Z,95.26
2022-12-05T01:44:01.678Z,95.68
2022-12-05T01:45:01.557Z,95.57
2022-12-05T01:46:01.921Z,95.32
2022-12-05T01:47:02.496Z,95.37
2022-12-05T01:48:02.679Z,95.22
2022-12-05T01:49:02.187Z,94.81
2022-12-05T01:50:02.198Z,94.95
2022-12-05T01:51:02.736Z,95.32
2022-12-05T01:52:01.715Z,94.81
2022-12-05T01:53:01.483Z,94.81
2022-12-05T01:54:01.560Z,95.01
2022-12-05T01:55:01.493Z,94.81
2022-12-05T01:56:01.351Z,94.29
2022-12-05T01:57:01.780Z,94.18
2022-12-05T01:58:02.158Z,93.87
2022-12-05T01:59:01.740Z,93.66
2022-12-05T02:00:01.654Z,94.18
2022-12-05T02:01:01.568Z,94.18
2022-12-05T02:02:02.907Z,93.98
2022-12-05T02:03:02.922Z,93.46
2022-12-05T02:04:03.250Z,93.46
2022-12-05T02:05:02.754Z,93.50
2022-12-05T02:06:02.768Z,94.02
2022-12-05T02:07:03.300Z,94.12
2022-12-05T02:08:03.405Z,94.02
2022-12-05T02:09:03.610Z,94.02
2022-12-05T02:10:03.144Z,93.81
2022-12-05T02:11:03.164Z,94.06
2022-12-05T02:12:02.534Z,93.91
2022-12-05T02:13:02.856Z,94.12
2022-12-05T02:14:02.435Z,93.60
2022-12-05T02:15:02.374Z,93.71
2022-12-05T02:16:02.999Z,93.81
2022-12-05T02:17:03.538Z,93.60
2022-12-05T02:18:03.483Z,92.98
2022-12-05T02:19:03.538Z,92.57
2022-12-05T02:20:03.415Z,92.88
2022-12-05T02:21:03.089Z,92.98
2022-12-05T02:22:03.604Z,92.98
2022-12-05T02:23:03.810Z,92.57
2022-12-05T02:24:03.868Z,92.36
2022-12-05T02:25:03.483Z,92.26
2022-12-05T02:26:03.651Z,92.78
2022-12-05T02:27:02.994Z,92.68
2022-12-05T02:28:03.457Z,92.05
2022-12-05T02:29:03.119Z,92.36
2022-12-05T02:30:03.054Z,92.36
2022-12-05T02:31:03.129Z,92.16
2022-12-05T02:32:02.842Z,92.36
2022-12-05T02:33:02.621Z,92.26
2022-12-05T02:34:02.790Z,92.36
2022-12-05T02:35:02.793Z,92.26
2022-12-05T02:36:02.724Z,92.26
2022-12-05T02:37:03.381Z,92.05
2022-12-05T02:38:03.061Z,91.91
2022-12-05T02:40:03.076Z,91.70
2022-12-05T02:41:03.144Z,91.60
2022-12-05T02:42:02.760Z,91.49
2022-12-05T02:43:02.207Z,91.39
2022-12-05T02:44:02.733Z,91.39
2022-12-05T02:45:02.663Z,91.18
2022-12-05T02:46:02.888Z,91.49
2022-12-05T02:47:03.200Z,91.60
2022-12-05T02:48:03.031Z,91.28
2022-12-05T02:49:02.991Z,91.28
2022-12-05T02:50:02.970Z,91.28
2022-12-05T02:51:02.767Z,91.28
2022-12-05T02:52:03.253Z,91.18
2022-12-05T02:53:02.997Z,91.18
2022-12-05T02:54:03.375Z,91.18
2022-12-05T02:55:03.372Z,91.18
2022-12-05T02:56:03.089Z,91.18
2022-12-05T02:57:03.716Z,91.08
2022-12-05T02:58:03.357Z,91.18
2022-12-05T02:59:03.262Z,91.22
2022-12-05T03:00:03.200Z,91.33
2022-12-05T03:01:03.462Z,91.33
2022-12-05T03:02:03.179Z,91.33
2022-12-05T03:03:02.915Z,91.33
2022-12-05T03:04:02.854Z,91.43
2022-12-05T03:05:02.824Z,91.43
2022-12-05T03:06:02.754Z,91.43
2022-12-05T03:07:03.213Z,91.43
2022-12-05T03:08:03.437Z,91.33
2022-12-05T03:09:02.954Z,91.33
2022-12-05T03:10:02.872Z,91.12
2022-12-05T03:11:03.324Z,90.97
2022-12-05T03:12:02.271Z,90.87
2022-12-05T03:13:02.884Z,90.66
2022-12-05T03:14:02.796Z,90.66
2022-12-05T03:15:02.764Z,90.56
2022-12-05T03:16:02.675Z,90.66
2022-12-05T03:17:02.654Z,90.56
2022-12-05T03:18:03.057Z,90.45
2022-12-05T03:19:02.957Z,90.45
2022-12-05T03:20:02.576Z,90.97
2022-12-05T03:21:03.177Z,90.97
2022-12-05T03:22:02.816Z,90.66
2022-12-05T03:23:03.379Z,90.56
2022-12-05T03:24:03.048Z,90.56
2022-12-05T03:25:03.033Z,90.56
2022-12-05T03:26:02.949Z,90.35
2022-12-05T03:27:02.372Z,90.25
2022-12-05T03:28:02.259Z,90.04
2022-12-05T03:29:02.143Z,90.14
2022-12-05T03:30:02.260Z,90.60
2022-12-05T03:31:02.163Z,90.70
2022-12-05T03:32:02.295Z,91.02
2022-12-05T03:33:02.209Z,91.02
2022-12-05T03:34:02.067Z,90.70
2022-12-05T03:35:02.298Z,90.70
2022-12-05T03:36:02.510Z,90.91
2022-12-05T03:37:02.608Z,91.02
2022-12-05T03:38:02.610Z,91.22
2022-12-05T03:39:02.510Z,91.22
2022-12-05T03:40:02.642Z,91.47
2022-12-05T03:41:02.232Z,91.58
2022-12-05T03:42:02.084Z,91.58
2022-12-05T03:43:02.130Z,91.47
2022-12-05T03:44:02.298Z,91.58
2022-12-05T03:45:02.613Z,91.68
2022-12-05T03:46:02.352Z,91.78
2022-12-05T03:47:02.760Z,91.78
2022-12-05T03:48:02.675Z,91.89
2022-12-05T03:49:02.582Z,92.24
2022-12-05T03:50:02.578Z,92.55
2022-12-05T03:51:02.502Z,92.86
2022-12-05T03:52:02.455Z,93.07
2022-12-05T03:54:02.345Z,93.38
2022-12-05T03:55:02.852Z,93.18
2022-12-05T03:56:02.849Z,92.97
2022-12-05T03:57:02.245Z,92.86
2022-12-05T03:58:01.859Z,92.61
2022-12-05T03:59:01.760Z,92.30
2022-12-05T04:00:02.113Z,92.20
2022-12-05T04:01:02.296Z,92.10
2022-12-05T04:02:03.011Z,91.89
2022-12-05T04:03:03.071Z,91.78
2022-12-05T04:04:03.284Z,91.89
2022-12-05T04:05:03.320Z,91.78
2022-12-05T04:06:03.245Z,91.99
2022-12-05T04:07:02.179Z,91.99
2022-12-05T04:08:02.237Z,91.89
2022-12-05T04:09:02.719Z,91.89
2022-12-05T04:10:02.137Z,91.78
2022-12-05T04:11:02.176Z,91.68
2022-12-05T04:12:02.490Z,91.68
2022-12-05T04:13:02.380Z,91.68
2022-12-05T04:14:02.955Z,91.68
2022-12-05T04:15:02.589Z,91.78
2022-12-05T04:16:02.499Z,91.99
2022-12-05T04:17:03.258Z,92.10
2022-12-05T04:18:02.939Z,92.10
2022-12-05T04:19:03.073Z,92.20
2022-12-05T04:20:02.623Z,92.30
2022-12-05T04:21:02.819Z,92.10
2022-12-05T04:22:02.366Z,91.99
2022-12-05T04:23:02.463Z,91.89
2022-12-05T04:24:02.349Z,91.78
2022-12-05T04:25:02.229Z,91.58
2022-12-05T04:26:02.812Z,91.58
2022-12-05T04:27:02.900Z,91.47
2022-12-05T04:28:02.571Z,91.37
2022-12-05T04:29:02.459Z,91.37
2022-12-05T04:30:02.358Z,91.27
2022-12-05T04:31:02.414Z,91.27
2022-12-05T04:32:02.097Z,91.37
2022-12-05T04:33:02.023Z,91.37
2022-12-05T04:34:02.277Z,91.47
2022-12-05T04:35:02.207Z,91.58
2022-12-05T04:36:02.239Z,91.68
2022-12-05T04:37:02.159Z,91.68
2022-12-05T04:38:02.441Z,91.68
2022-12-05T04:39:02.004Z,91.58
2022-12-05T04:40:02.269Z,91.58
2022-12-05T04:41:02.161Z,91.58
2022-12-05T04:42:02.639Z,91.58
2022-12-05T04:43:02.529Z,91.78
2022-12-05T04:44:03.111Z,91.89
2022-12-05T04:45:02.748Z,91.58
2022-12-05T04:46:02.692Z,91.47
2022-12-05T04:47:02.235Z,91.37
2022-12-05T04:48:02.156Z,91.37
2022-12-05T04:49:02.020Z,91.37
2022-12-05T04:50:01.909Z,91.47
2022-12-05T04:51:02.172Z,91.47
2022-12-05T04:52:02.177Z,91.47
2022-12-05T04:53:02.104Z,91.58
2022-12-05T04:54:01.965Z,91.89
2022-12-05T04:55:01.968Z,91.89
2022-12-05T04:56:01.880Z,92.10
2022-12-05T04:57:02.424Z,92.10
2022-12-05T04:58:02.016Z,92.10
2022-12-05T04:59:02.612Z,91.99
2022-12-05T05:00:02.255Z,92.24
2022-12-05T05:01:02.359Z,92.24
2022-12-05T05:02:02.847Z,92.14
2022-12-05T05:03:02.851Z,91.99
2022-12-05T05:04:02.657Z,92.14
2022-12-05T05:05:03.263Z,92.35
2022-12-05T05:06:02.896Z,92.55
2022-12-05T05:07:02.522Z,92.55
2022-12-05T05:08:02.496Z,92.45
2022-12-05T05:09:02.285Z,92.20
2022-12-05T05:10:02.722Z,91.99
2022-12-05T05:11:02.601Z,91.89
2022-12-05T05:12:03.004Z,91.78
2022-12-05T05:13:02.845Z,91.68
2022-12-05T05:14:02.828Z,91.68
2022-12-05T05:15:02.733Z,91.58
2022-12-05T05:16:03.297Z,91.58
2022-12-05T05:17:02.727Z,91.47
2022-12-05T05:18:02.335Z,91.47
2022-12-05T05:19:02.916Z,91.58
2022-12-05T05:20:02.745Z,91.78
2022-12-05T05:21:02.594Z,91.89
2022-12-05T05:22:02.889Z,91.89
2022-12-05T05:23:02.927Z,91.78
2022-12-05T05:24:02.818Z,91.78
2022-12-05T05:25:02.659Z,91.58
2022-12-05T05:26:02.541Z,91.47
2022-12-05T05:27:03.113Z,91.37
2022-12-05T05:28:03.007Z,91.16
2022-12-05T05:29:02.889Z,91.16
2022-12-05T05:30:02.790Z,91.06
2022-12-05T05:31:03.258Z,91.06
2022-12-05T05:32:02.796Z,91.06
2022-12-05T05:33:02.693Z,91.16
2022-12-05T05:34:09.170Z,91.27
2022-12-05T05:35:02.790Z,91.68
2022-12-05T05:36:02.609Z,92.10
2022-12-05T05:37:02.300Z,92.30
2022-12-05T05:38:02.209Z,92.66
2022-12-05T05:39:02.123Z,92.76
2022-12-05T05:40:06.254Z,92.86
2022-12-05T05:41:02.312Z,92.97
2022-12-05T05:42:02.905Z,92.97
2022-12-05T05:43:02.839Z,93.07
2022-12-05T05:44:02.716Z,93.07
2022-12-05T05:45:02.460Z,93.18
2022-12-05T05:46:02.635Z,93.07
2022-12-05T05:47:02.996Z,92.97
2022-12-05T05:48:02.902Z,92.97
2022-12-05T05:49:02.925Z,92.97
2022-12-05T05:50:02.855Z,92.86
2022-12-05T05:51:02.762Z,92.76
2022-12-05T05:52:02.387Z,92.66
2022-12-05T05:53:02.255Z,92.66
2022-12-05T05:54:02.160Z,93.18
2022-12-05T05:55:02.077Z,93.18
2022-12-05T05:56:02.472Z,93.18
2022-12-05T05:57:02.792Z,93.18
2022-12-05T05:58:02.716Z,92.97
2022-12-05T05:59:02.634Z,92.86
2022-12-05T06:00:02.799Z,92.97
2022-12-05T06:01:02.372Z,93.18
2022-12-05T06:02:02.504Z,93.28
2022-12-05T06:03:03.073Z,93.38
2022-12-05T06:04:02.553Z,93.59
2022-12-05T06:05:02.823Z,93.18
2022-12-05T06:06:02.546Z,92.97
2022-12-05T06:07:03.424Z,93.07
2022-12-05T06:08:03.377Z,93.28
2022-12-05T06:09:03.216Z,93.49
2022-12-05T06:10:03.351Z,93.70
2022-12-05T06:11:03.171Z,93.38
2022-12-05T06:12:03.026Z,93.28
2022-12-05T06:13:02.796Z,93.59
2022-12-05T06:14:02.622Z,93.90
2022-12-05T06:15:02.455Z,94.11
2022-12-05T06:16:02.741Z,94.11
2022-12-05T06:17:02.922Z,93.80
2022-12-05T06:18:02.815Z,93.70
2022-12-05T06:19:03.357Z,93.59
2022-12-05T06:20:02.893Z,92.86
2022-12-05T06:21:03.198Z,92.66
2022-12-05T06:22:02.028Z,93.28
2022-12-05T06:23:02.549Z,93.80
2022-12-05T06:24:02.193Z,93.90
2022-12-05T06:25:02.520Z,94.11
2022-12-05T06:26:02.416Z,94.01
2022-12-05T06:27:02.908Z,94.11
2022-12-05T06:28:02.400Z,94.01
2022-12-05T06:29:02.431Z,93.90
2022-12-05T06:30:02.700Z,93.18
2022-12-05T06:31:02.992Z,92.76
2022-12-05T06:32:03.497Z,92.41
2022-12-05T06:33:03.082Z,92.66
2022-12-05T06:34:02.825Z,92.82
2022-12-05T06:35:03.280Z,93.28
2022-12-05T06:36:03.179Z,93.70
2022-12-05T06:37:02.648Z,94.01
2022-12-05T06:38:02.141Z,93.80
2022-12-05T06:39:02.035Z,94.01
2022-12-05T06:40:02.584Z,94.11
2022-12-05T06:41:02.264Z,94.32
2022-12-05T06:42:02.287Z,94.53
2022-12-05T06:43:02.728Z,94.73
2022-12-05T06:44:02.897Z,94.42
2022-12-05T06:45:02.559Z,94.42
2022-12-05T06:46:02.412Z,94.32
2022-12-05T06:47:02.354Z,94.01
2022-12-05T06:48:02.952Z,93.59
2022-12-05T06:49:02.618Z,93.70
2022-12-05T06:50:02.550Z,93.80
2022-12-05T06:51:02.756Z,93.70
2022-12-05T06:52:02.606Z,93.80
2022-12-05T06:53:03.107Z,94.11
2022-12-05T06:54:02.897Z,94.42
2022-12-05T06:55:02.960Z,94.53
2022-12-05T06:56:02.714Z,94.01
2022-12-05T06:57:02.291Z,93.70
2022-12-05T06:58:02.842Z,93.33
2022-12-05T06:59:02.291Z,92.72
2022-12-05T07:00:02.239Z,92.82
2022-12-05T07:01:02.567Z,92.72
2022-12-05T07:02:02.660Z,92.93
2022-12-05T07:03:03.141Z,93.44
2022-12-05T07:04:03.058Z,92.82
2022-12-05T07:05:02.484Z,92.20
2022-12-05T07:06:02.601Z,91.99
2022-12-05T07:07:02.742Z,92.20
2022-12-05T07:08:02.778Z,92.51
2022-12-05T07:09:02.848Z,92.86
2022-12-05T07:10:02.643Z,93.07
2022-12-05T07:11:02.623Z,93.28
2022-12-05T07:12:02.299Z,93.38
2022-12-05T07:13:02.228Z,93.49
2022-12-05T07:14:10.246Z,93.59
2022-12-05T07:15:02.100Z,93.70
2022-12-05T07:16:02.709Z,93.80
2022-12-05T07:17:02.397Z,93.80
2022-12-05T07:18:02.279Z,93.49
2022-12-05T07:19:02.252Z,93.07
2022-12-05T07:20:02.845Z,92.86
2022-12-05T07:21:15.439Z,92.61
2022-12-05T07:22:02.862Z,92.51
2022-12-05T07:23:02.853Z,92.97
2022-12-05T07:24:02.812Z,93.07
2022-12-05T07:25:02.797Z,93.28
2022-12-05T07:26:03.265Z,93.70
2022-12-05T07:27:02.192Z,94.11
2022-12-05T07:28:02.571Z,94.21
2022-12-05T07:29:02.335Z,94.01
2022-12-05T07:30:02.195Z,93.90
2022-12-05T07:31:01.896Z,93.90
2022-12-05T07:32:02.896Z,93.90
2022-12-05T07:33:02.527Z,93.80
2022-12-05T07:34:02.793Z,93.59
2022-12-05T07:35:02.747Z,93.80
2022-12-05T07:36:02.647Z,93.90
2022-12-05T07:37:02.636Z,94.01
2022-12-05T07:38:02.860Z,93.90
2022-12-05T07:39:02.875Z,93.90
2022-12-05T07:40:02.908Z,94.11
2022-12-05T07:41:02.729Z,94.11
2022-12-05T07:42:02.320Z,94.21
2022-12-05T07:43:02.197Z,94.21
2022-12-05T07:44:02.134Z,94.21
2022-12-05T07:45:02.095Z,94.21
2022-12-05T07:46:02.051Z,94.32
2022-12-05T07:47:02.739Z,94.21
2022-12-05T07:48:02.703Z,94.21
2022-12-05T07:49:02.718Z,94.21
2022-12-05T07:50:02.662Z,94.32
2022-12-05T07:51:02.619Z,94.32
2022-12-05T07:52:02.317Z,94.01
2022-12-05T07:53:02.265Z,93.80
2022-12-05T07:54:02.274Z,93.59
2022-12-05T07:55:02.288Z,93.80
2022-12-05T07:56:02.332Z,93.80
2022-12-05T07:57:02.343Z,93.90
2022-12-05T07:58:02.393Z,94.01
2022-12-05T07:59:02.418Z,93.96
2022-12-05T08:00:02.312Z,93.75
2022-12-05T08:01:02.450Z,93.65
2022-12-05T08:02:02.904Z,93.65
2022-12-05T08:03:02.860Z,93.54
2022-12-05T08:04:02.881Z,93.44
2022-12-05T08:05:02.913Z,93.44
2022-12-05T08:06:02.836Z,93.33
2022-12-05T08:07:03.259Z,93.13
2022-12-05T08:08:03.199Z,92.93
2022-12-05T08:09:03.150Z,92.82
2022-12-05T08:10:03.072Z,92.61
2022-12-05T08:11:02.975Z,92.61
2022-12-05T08:12:02.652Z,93.02
2022-12-05T08:13:02.731Z,93.33
2022-12-05T08:14:02.418Z,93.44
2022-12-05T08:15:02.388Z,93.54
2022-12-05T08:16:02.293Z,93.44
2022-12-05T08:17:02.969Z,93.33
2022-12-05T08:18:02.952Z,93.33
2022-12-05T08:19:02.901Z,93.54
2022-12-05T08:20:02.835Z,93.75
2022-12-05T08:21:02.766Z,94.32
2022-12-05T08:22:02.452Z,95.04
2022-12-05T08:23:02.562Z,95.36
2022-12-05T08:24:02.358Z,95.15
2022-12-05T08:25:02.405Z,95.04
2022-12-05T08:26:02.335Z,94.94
2022-12-05T08:27:03.037Z,95.15
2022-12-05T08:28:02.971Z,95.15
2022-12-05T08:29:03.119Z,95.15
2022-12-05T08:30:03.127Z,95.00
2022-12-05T08:31:02.786Z,94.58
2022-12-05T08:32:02.425Z,94.27
2022-12-05T08:33:02.380Z,93.96
2022-12-05T08:34:01.948Z,94.27
2022-12-05T08:35:02.013Z,94.17
2022-12-05T08:36:02.318Z,93.81
2022-12-05T08:37:03.120Z,93.29
2022-12-05T08:38:03.098Z,93.08
2022-12-05T08:39:02.596Z,93.19
2022-12-05T08:40:03.182Z,93.91
2022-12-05T08:41:02.994Z,94.12
2022-12-05T08:42:02.137Z,94.02
2022-12-05T08:43:02.234Z,93.50
2022-12-05T08:44:02.227Z,93.08
2022-12-05T08:45:01.847Z,92.74
2022-12-05T08:46:02.324Z,92.74
2022-12-05T08:47:03.007Z,92.84
2022-12-05T08:48:03.063Z,92.53
2022-12-05T08:49:02.773Z,92.63
2022-12-05T08:50:02.737Z,92.84
2022-12-05T08:51:02.785Z,93.08
2022-12-05T08:52:02.494Z,93.19
2022-12-05T08:53:02.361Z,93.08
2022-12-05T08:54:02.358Z,93.29
2022-12-05T08:55:02.452Z,93.19
2022-12-05T08:56:01.877Z,93.40
2022-12-05T08:57:02.668Z,93.60
2022-12-05T08:58:02.385Z,93.60
2022-12-05T08:59:05.546Z,93.81
2022-12-05T09:00:02.539Z,93.60
2022-12-05T09:01:02.501Z,93.60
2022-12-05T09:02:03.561Z,93.81
2022-12-05T09:03:04.297Z,93.56
2022-12-05T09:04:03.859Z,93.35
2022-12-05T09:05:25.824Z,93.15
2022-12-05T09:06:03.628Z,93.04
2022-12-05T09:07:03.198Z,93.25
2022-12-05T09:08:03.009Z,93.04
2022-12-05T09:09:02.989Z,92.84
2022-12-05T09:10:02.919Z,92.63
2022-12-05T09:11:02.865Z,92.84
2022-12-05T09:12:03.777Z,93.35
2022-12-05T09:13:03.562Z,93.29
2022-12-05T09:14:03.345Z,93.40
2022-12-05T09:15:02.944Z,93.56
2022-12-05T09:16:03.461Z,93.71
2022-12-05T09:17:02.479Z,93.60
2022-12-05T09:18:02.474Z,94.02
2022-12-05T09:19:02.901Z,93.91
2022-12-05T09:20:02.761Z,94.18
2022-12-05T09:21:03.122Z,93.77
2022-12-05T09:22:03.546Z,93.46
2022-12-05T09:23:03.372Z,93.56
2022-12-05T09:24:03.163Z,93.66
2022-12-05T09:25:03.556Z,93.66
2022-12-05T09:26:03.505Z,93.35
2022-12-05T09:27:02.443Z,93.81
2022-12-05T09:28:02.497Z,94.08
2022-12-05T09:29:02.443Z,93.77
2022-12-05T09:30:02.438Z,93.77
2022-12-05T09:31:03.079Z,93.77
2022-12-05T09:32:02.815Z,93.71
2022-12-05T09:33:03.472Z,94.74
2022-12-05T09:34:03.287Z,94.54
2022-12-05T09:35:03.289Z,94.58
2022-12-05T09:36:03.029Z,95.51
2022-12-05T09:37:23.247Z,95.72
2022-12-05T09:38:03.649Z,95.26
2022-12-05T09:39:03.339Z,95.16
2022-12-05T09:40:03.362Z,94.85
2022-12-05T09:41:03.539Z,94.64
2022-12-05T09:42:02.640Z,94.54
2022-12-05T09:43:02.760Z,94.39
2022-12-05T09:44:02.733Z,94.18
2022-12-05T09:45:02.751Z,93.87
2022-12-05T09:46:03.097Z,93.66
2022-12-05T09:47:03.088Z,93.46
2022-12-05T09:48:03.133Z,93.46
2022-12-05T09:49:03.232Z,93.46
2022-12-05T09:50:03.645Z,93.46
2022-12-05T09:51:03.200Z,93.87
2022-12-05T09:52:02.287Z,94.18
2022-12-05T09:53:02.226Z,93.98
2022-12-05T09:54:02.120Z,93.56
2022-12-05T09:55:02.675Z,93.56
2022-12-05T09:56:02.642Z,93.31
2022-12-05T09:57:02.695Z,93.35
2022-12-05T09:58:02.704Z,93.62
2022-12-05T09:59:03.052Z,93.31
2022-12-05T10:00:03.038Z,93.21
2022-12-05T10:01:02.698Z,93.31
2022-12-05T10:02:02.450Z,93.00
2022-12-05T10:03:02.859Z,93.00
2022-12-05T10:04:02.645Z,93.35
2022-12-05T10:05:03.172Z,94.08
2022-12-05T10:06:02.273Z,94.18
2022-12-05T10:07:02.711Z,93.87
2022-12-05T10:08:02.733Z,93.98
2022-12-05T10:09:02.572Z,94.49
2022-12-05T10:10:02.488Z,93.98
2022-12-05T10:11:02.247Z,93.87
2022-12-05T10:12:01.986Z,94.18
2022-12-05T10:13:01.876Z,93.87
2022-12-05T10:14:01.902Z,94.18
2022-12-05T10:15:02.395Z,94.39
2022-12-05T10:16:01.988Z,94.04
2022-12-05T10:17:02.078Z,93.83
2022-12-05T10:18:02.105Z,93.73
2022-12-05T10:19:02.053Z,93.62
2022-12-05T10:20:01.905Z,93.93
2022-12-05T10:21:01.894Z,93.73
2022-12-05T10:22:02.458Z,94.08
2022-12-05T10:23:02.452Z,94.04
2022-12-05T10:24:02.763Z,93.93
2022-12-05T10:25:02.777Z,94.66
2022-12-05T10:26:02.784Z,94.56
2022-12-05T10:27:02.568Z,94.14
2022-12-05T10:28:02.563Z,93.99
2022-12-05T10:29:02.549Z,93.79
2022-12-05T10:30:02.571Z,93.48
2022-12-05T10:31:02.497Z,93.48
2022-12-05T10:32:02.178Z,93.58
2022-12-05T10:33:06.454Z,93.27
2022-12-05T10:34:02.418Z,93.48
2022-12-05T10:35:02.321Z,93.27
2022-12-05T10:36:02.281Z,93.37
2022-12-05T10:37:02.869Z,93.00
2022-12-05T10:38:02.705Z,93.93
2022-12-05T10:39:07.009Z,94.24
2022-12-05T10:40:02.765Z,94.20
2022-12-05T10:41:02.765Z,93.99
2022-12-05T10:42:01.998Z,94.31
2022-12-05T10:43:01.861Z,93.68
2022-12-05T10:44:01.792Z,93.27
2022-12-05T10:45:02.041Z,93.48
2022-12-05T10:46:02.193Z,93.12
2022-12-05T10:47:02.793Z,92.81
2022-12-05T10:48:02.842Z,92.61
2022-12-05T10:49:02.522Z,92.19
2022-12-05T10:50:02.379Z,91.78
2022-12-05T10:51:02.309Z,92.55
2022-12-05T10:52:02.040Z,92.85
2022-12-05T10:53:02.022Z,93.02
2022-12-05T10:54:02.010Z,92.71
2022-12-05T10:55:01.981Z,92.61
2022-12-05T10:56:29.942Z,92.85
2022-12-05T10:57:02.188Z,93.06
2022-12-05T10:58:02.077Z,93.06
2022-12-05T10:59:02.063Z,93.41
2022-12-05T11:00:02.193Z,94.04
2022-12-05T11:01:02.250Z,94.56
2022-12-05T11:02:02.992Z,94.14
2022-12-05T11:03:02.673Z,94.76
2022-12-05T11:04:03.013Z,94.60
2022-12-05T11:05:03.155Z,94.91
2022-12-05T11:06:02.931Z,95.39
2022-12-05T11:07:03.064Z,95.39
2022-12-05T11:08:03.121Z,94.87
2022-12-05T11:09:05.180Z,94.45
2022-12-05T11:10:03.223Z,94.41
2022-12-05T11:11:02.862Z,94.31
2022-12-05T11:12:02.431Z,93.89
2022-12-05T11:13:02.383Z,93.79
2022-12-05T11:14:02.243Z,93.89
2022-12-05T11:15:02.215Z,93.99
2022-12-05T11:16:02.218Z,94.04
2022-12-05T11:17:02.881Z,94.24
2022-12-05T11:18:02.853Z,94.81
2022-12-05T11:19:02.821Z,95.28
2022-12-05T11:20:02.676Z,94.66
2022-12-05T11:21:02.622Z,94.66
2022-12-05T11:22:02.421Z,94.97
2022-12-05T11:23:02.285Z,94.87
2022-12-05T11:24:02.244Z,94.93
2022-12-05T11:25:02.536Z,94.51
2022-12-05T11:26:02.238Z,94.41
2022-12-05T11:27:02.899Z,94.16
2022-12-05T11:28:02.849Z,93.89
2022-12-05T11:29:02.610Z,93.79
2022-12-05T11:30:02.426Z,93.85
2022-12-05T11:31:03.049Z,93.99
2022-12-05T11:32:02.494Z,94.41
2022-12-05T11:33:02.400Z,94.20
2022-12-05T11:34:02.532Z,93.99
2022-12-05T11:35:02.140Z,93.89
2022-12-05T11:36:02.513Z,94.20
2022-12-05T11:37:02.770Z,94.62
2022-12-05T11:38:02.550Z,94.72
2022-12-05T11:39:02.434Z,94.82
2022-12-05T11:40:02.304Z,94.62
2022-12-05T11:41:02.382Z,94.62
2022-12-05T11:42:03.028Z,94.31
2022-12-05T11:43:03.107Z,94.20
2022-12-05T11:44:02.793Z,94.41
2022-12-05T11:45:02.706Z,94.26
2022-12-05T11:46:02.980Z,94.16
2022-12-05T11:47:02.955Z,94.06
2022-12-05T11:48:02.609Z,93.74
2022-12-05T11:49:02.572Z,94.06
2022-12-05T11:50:02.527Z,94.06
2022-12-05T11:51:02.642Z,94.26
2022-12-05T11:52:02.949Z,94.16
2022-12-05T11:53:02.633Z,94.06
2022-12-05T11:54:02.512Z,93.85
2022-12-05T11:55:05.489Z,94.01
2022-12-05T11:56:02.824Z,93.91
2022-12-05T11:57:03.156Z,93.80
2022-12-05T11:58:02.913Z,93.60
2022-12-05T11:59:02.594Z,93.39
2022-12-05T12:00:03.151Z,93.08
2022-12-05T12:01:02.992Z,93.18
2022-12-05T12:02:03.495Z,93.08
2022-12-05T12:03:03.127Z,92.67
2022-12-05T12:04:03.078Z,93.12
2022-12-05T12:05:02.933Z,93.80
2022-12-05T12:06:03.060Z,93.70
2022-12-05T12:07:02.083Z,93.70
2022-12-05T12:08:02.491Z,93.29
2022-12-05T12:09:02.559Z,93.29
2022-12-05T12:10:05.838Z,92.97
2022-12-05T12:11:02.326Z,93.39
2022-12-05T12:12:02.147Z,93.60
2022-12-05T12:13:02.373Z,93.35
2022-12-05T12:14:02.397Z,93.14
2022-12-05T12:15:02.794Z,93.14
2022-12-05T12:16:07.994Z,93.29
2022-12-05T12:17:02.594Z,93.35
2022-12-05T12:18:03.077Z,93.24
2022-12-05T12:19:02.947Z,92.83
2022-12-05T12:20:02.833Z,92.93
2022-12-05T12:21:02.897Z,92.83
2022-12-05T12:22:03.018Z,92.72
2022-12-05T12:23:02.125Z,92.21
2022-12-05T12:24:02.084Z,92.72
2022-12-05T12:25:02.655Z,93.24
2022-12-05T12:26:02.168Z,92.97
2022-12-05T12:27:02.046Z,93.70
2022-12-05T12:28:04.595Z,94.22
2022-12-05T12:29:02.280Z,94.32
2022-12-05T12:30:02.316Z,94.84
2022-12-05T12:31:02.873Z,94.73
2022-12-05T12:32:02.314Z,94.43
2022-12-05T12:33:02.956Z,94.73
2022-12-05T12:34:02.713Z,94.94
2022-12-05T12:35:02.607Z,94.63
2022-12-05T12:36:02.488Z,94.22
2022-12-05T12:37:02.633Z,94.53
2022-12-05T12:38:02.260Z,94.53
2022-12-05T12:39:02.160Z,94.48
2022-12-05T12:40:02.029Z,94.28
2022-12-05T12:41:01.902Z,93.76
2022-12-05T12:42:02.483Z,93.97
2022-12-05T12:43:02.139Z,94.07
2022-12-05T12:44:02.063Z,93.87
2022-12-05T12:45:02.310Z,93.55
2022-12-05T12:46:05.419Z,93.45
2022-12-05T12:47:01.994Z,93.45
2022-12-05T12:48:02.727Z,93.97
2022-12-05T12:49:02.693Z,93.60
2022-12-05T12:50:02.647Z,93.70
2022-12-05T12:51:02.549Z,94.32
2022-12-05T12:52:02.435Z,94.57
2022-12-05T12:53:02.106Z,94.68
2022-12-05T12:54:01.993Z,94.98